sensor_id;sensor_type;location;lat;lon;timestamp;P1;durP1;ratioP1;P2;durP2;ratioP2
66761;SDS011;53672;48.176;16.338;2023-12-07T00:02:31;24.20;;;10.90;;
66761;SDS011;53672;48.176;16.338;2023-12-07T00:07:32;23.83;;;10.55;;
66761;SDS011;53672;48.176;16.338;2023-12-07T00:12:32;22.47;;;10.50;;
66761;SDS011;53672;48.176;16.338;2023-12-07T00:17:34;21.93;;;9.83;;
66761;SDS011;53672;48.176;16.338;2023-12-07T00:22:35;23.35;;;10.18;;
66761;SDS011;53672;48.176;16.338;2023-12-07T00:27:35;22.73;;;9.27;;
66761;SDS011;53672;48.176;16.338;2023-12-07T00:32:37;21.00;;;9.20;;
66761;SDS011;53672;48.176;16.338;2023-12-07T00:37:37;21.03;;;9.43;;
66761;SDS011;53672;48.176;16.338;2023-12-07T00:42:38;21.87;;;9.30;;
66761;SDS011;53672;48.176;16.338;2023-12-07T00:47:40;21.43;;;9.50;;
66761;SDS011;53672;48.176;16.338;2023-12-07T00:52:40;20.48;;;9.43;;
66761;SDS011;53672;48.176;16.338;2023-12-07T00:57:40;19.13;;;8.43;;
66761;SDS011;53672;48.176;16.338;2023-12-07T01:02:42;21.37;;;8.80;;
66761;SDS011;53672;48.176;16.338;2023-12-07T01:07:43;21.30;;;9.25;;
66761;SDS011;53672;48.176;16.338;2023-12-07T01:12:43;20.17;;;9.10;;
66761;SDS011;53672;48.176;16.338;2023-12-07T01:17:45;20.77;;;9.43;;
66761;SDS011;53672;48.176;16.338;2023-12-07T01:22:45;25.70;;;9.53;;
66761;SDS011;53672;48.176;16.338;2023-12-07T01:27:46;19.97;;;8.73;;
66761;SDS011;53672;48.176;16.338;2023-12-07T01:32:47;19.57;;;8.57;;
66761;SDS011;53672;48.176;16.338;2023-12-07T01:37:48;21.15;;;9.02;;
66761;SDS011;53672;48.176;16.338;2023-12-07T01:42:49;20.03;;;8.57;;
66761;SDS011;53672;48.176;16.338;2023-12-07T01:47:51;20.50;;;8.98;;
66761;SDS011;53672;48.176;16.338;2023-12-07T01:52:54;18.57;;;8.43;;
66761;SDS011;53672;48.176;16.338;2023-12-07T01:57:59;18.38;;;8.38;;
66761;SDS011;53672;48.176;16.338;2023-12-07T02:03:01;21.27;;;9.07;;
66761;SDS011;53672;48.176;16.338;2023-12-07T02:08:04;20.15;;;9.00;;
66761;SDS011;53672;48.176;16.338;2023-12-07T02:13:04;19.07;;;8.43;;
66761;SDS011;53672;48.176;16.338;2023-12-07T02:18:14;21.43;;;8.47;;
66761;SDS011;53672;48.176;16.338;2023-12-07T02:23:19;22.17;;;9.43;;
66761;SDS011;53672;48.176;16.338;2023-12-07T02:28:22;20.30;;;8.55;;
66761;SDS011;53672;48.176;16.338;2023-12-07T02:33:23;19.53;;;8.53;;
66761;SDS011;53672;48.176;16.338;2023-12-07T02:38:23;20.33;;;8.43;;
66761;SDS011;53672;48.176;16.338;2023-12-07T02:43:27;21.63;;;8.57;;
66761;SDS011;53672;48.176;16.338;2023-12-07T02:48:29;22.93;;;9.50;;
66761;SDS011;53672;48.176;16.338;2023-12-07T02:53:29;20.73;;;8.77;;
66761;SDS011;53672;48.176;16.338;2023-12-07T02:58:31;22.33;;;9.17;;
66761;SDS011;53672;48.176;16.338;2023-12-07T03:03:31;24.40;;;9.60;;
66761;SDS011;53672;48.176;16.338;2023-12-07T03:08:32;21.00;;;8.57;;
66761;SDS011;53672;48.176;16.338;2023-12-07T03:13:33;21.13;;;8.97;;
66761;SDS011;53672;48.176;16.338;2023-12-07T03:18:34;20.02;;;8.32;;
66761;SDS011;53672;48.176;16.338;2023-12-07T03:23:34;21.00;;;9.23;;
66761;SDS011;53672;48.176;16.338;2023-12-07T03:28:37;20.87;;;8.97;;
66761;SDS011;53672;48.176;16.338;2023-12-07T03:33:37;22.83;;;9.35;;
66761;SDS011;53672;48.176;16.338;2023-12-07T03:38:38;21.77;;;9.47;;
66761;SDS011;53672;48.176;16.338;2023-12-07T03:43:40;23.00;;;9.63;;
66761;SDS011;53672;48.176;16.338;2023-12-07T03:48:40;21.52;;;9.85;;
66761;SDS011;53672;48.176;16.338;2023-12-07T03:53:40;23.08;;;9.30;;
66761;SDS011;53672;48.176;16.338;2023-12-07T03:58:42;22.48;;;8.82;;
66761;SDS011;53672;48.176;16.338;2023-12-07T04:03:43;25.13;;;9.80;;
66761;SDS011;53672;48.176;16.338;2023-12-07T04:08:43;23.60;;;9.17;;
66761;SDS011;53672;48.176;16.338;2023-12-07T04:13:46;21.53;;;9.03;;
66761;SDS011;53672;48.176;16.338;2023-12-07T04:18:47;20.83;;;9.35;;
66761;SDS011;53672;48.176;16.338;2023-12-07T04:23:47;23.80;;;9.73;;
66761;SDS011;53672;48.176;16.338;2023-12-07T04:28:49;22.80;;;9.20;;
66761;SDS011;53672;48.176;16.338;2023-12-07T04:33:49;22.33;;;9.20;;
66761;SDS011;53672;48.176;16.338;2023-12-07T04:38:50;21.20;;;9.20;;
66761;SDS011;53672;48.176;16.338;2023-12-07T04:43:51;22.77;;;9.53;;
66761;SDS011;53672;48.176;16.338;2023-12-07T04:48:52;22.48;;;9.00;;
66761;SDS011;53672;48.176;16.338;2023-12-07T04:53:52;22.97;;;8.73;;
66761;SDS011;53672;48.176;16.338;2023-12-07T04:58:54;23.40;;;9.67;;
66761;SDS011;53672;48.176;16.338;2023-12-07T05:03:54;23.48;;;10.00;;
66761;SDS011;53672;48.176;16.338;2023-12-07T05:08:55;21.20;;;9.23;;
66761;SDS011;53672;48.176;16.338;2023-12-07T05:13:57;23.60;;;9.60;;
66761;SDS011;53672;48.176;16.338;2023-12-07T05:18:57;23.87;;;9.37;;
66761;SDS011;53672;48.176;16.338;2023-12-07T05:23:57;23.40;;;9.33;;
66761;SDS011;53672;48.176;16.338;2023-12-07T05:28:59;24.40;;;10.27;;
66761;SDS011;53672;48.176;16.338;2023-12-07T05:34:00;24.60;;;9.70;;
66761;SDS011;53672;48.176;16.338;2023-12-07T05:39:00;23.63;;;9.57;;
66761;SDS011;53672;48.176;16.338;2023-12-07T05:44:02;23.17;;;9.53;;
66761;SDS011;53672;48.176;16.338;2023-12-07T05:49:03;26.58;;;10.10;;
66761;SDS011;53672;48.176;16.338;2023-12-07T05:54:04;22.03;;;9.00;;
66761;SDS011;53672;48.176;16.338;2023-12-07T05:59:05;23.97;;;10.13;;
66761;SDS011;53672;48.176;16.338;2023-12-07T06:04:07;23.13;;;10.10;;
66761;SDS011;53672;48.176;16.338;2023-12-07T06:09:08;23.00;;;9.30;;
66761;SDS011;53672;48.176;16.338;2023-12-07T06:14:10;22.87;;;9.60;;
66761;SDS011;53672;48.176;16.338;2023-12-07T06:19:11;25.27;;;10.05;;
66761;SDS011;53672;48.176;16.338;2023-12-07T06:24:11;23.10;;;9.50;;
66761;SDS011;53672;48.176;16.338;2023-12-07T06:29:13;22.53;;;9.80;;
66761;SDS011;53672;48.176;16.338;2023-12-07T06:34:13;23.27;;;9.82;;
66761;SDS011;53672;48.176;16.338;2023-12-07T06:39:14;26.37;;;10.87;;
66761;SDS011;53672;48.176;16.338;2023-12-07T06:44:15;24.10;;;9.90;;
66761;SDS011;53672;48.176;16.338;2023-12-07T06:49:16;26.43;;;10.40;;
66761;SDS011;53672;48.176;16.338;2023-12-07T06:54:16;26.73;;;10.03;;
66761;SDS011;53672;48.176;16.338;2023-12-07T06:59:18;26.07;;;10.00;;
66761;SDS011;53672;48.176;16.338;2023-12-07T07:04:18;24.30;;;10.10;;
66761;SDS011;53672;48.176;16.338;2023-12-07T07:09:19;22.63;;;9.70;;
66761;SDS011;53672;48.176;16.338;2023-12-07T07:14:21;25.20;;;9.53;;
66761;SDS011;53672;48.176;16.338;2023-12-07T07:19:21;24.52;;;9.57;;
66761;SDS011;53672;48.176;16.338;2023-12-07T07:24:21;25.10;;;10.15;;
66761;SDS011;53672;48.176;16.338;2023-12-07T07:29:23;24.43;;;9.97;;
66761;SDS011;53672;48.176;16.338;2023-12-07T07:34:24;24.20;;;9.87;;
66761;SDS011;53672;48.176;16.338;2023-12-07T07:39:24;22.83;;;9.53;;
66761;SDS011;53672;48.176;16.338;2023-12-07T07:44:26;26.07;;;10.27;;
66761;SDS011;53672;48.176;16.338;2023-12-07T07:49:26;22.13;;;9.82;;
66761;SDS011;53672;48.176;16.338;2023-12-07T07:54:27;23.37;;;9.83;;
66761;SDS011;53672;48.176;16.338;2023-12-07T07:59:28;23.07;;;9.50;;
66761;SDS011;53672;48.176;16.338;2023-12-07T08:04:29;23.53;;;9.17;;
66761;SDS011;53672;48.176;16.338;2023-12-07T08:09:29;23.30;;;9.73;;
66761;SDS011;53672;48.176;16.338;2023-12-07T08:14:31;21.73;;;9.43;;
66761;SDS011;53672;48.176;16.338;2023-12-07T08:19:31;22.55;;;9.48;;
66761;SDS011;53672;48.176;16.338;2023-12-07T08:24:32;22.10;;;9.23;;
66761;SDS011;53672;48.176;16.338;2023-12-07T08:29:34;21.40;;;9.70;;
66761;SDS011;53672;48.176;16.338;2023-12-07T08:34:34;24.05;;;9.88;;
66761;SDS011;53672;48.176;16.338;2023-12-07T08:39:34;23.83;;;9.77;;
66761;SDS011;53672;48.176;16.338;2023-12-07T08:44:36;21.43;;;9.83;;
66761;SDS011;53672;48.176;16.338;2023-12-07T08:49:37;24.13;;;10.03;;
66761;SDS011;53672;48.176;16.338;2023-12-07T08:54:37;22.87;;;10.13;;
66761;SDS011;53672;48.176;16.338;2023-12-07T08:59:39;22.00;;;9.13;;
66761;SDS011;53672;48.176;16.338;2023-12-07T09:04:39;21.67;;;9.48;;
66761;SDS011;53672;48.176;16.338;2023-12-07T09:09:40;21.10;;;9.67;;
66761;SDS011;53672;48.176;16.338;2023-12-07T09:14:42;22.23;;;9.60;;
66761;SDS011;53672;48.176;16.338;2023-12-07T09:19:43;23.67;;;9.53;;
66761;SDS011;53672;48.176;16.338;2023-12-07T09:24:44;21.67;;;9.45;;
66761;SDS011;53672;48.176;16.338;2023-12-07T09:29:46;17.63;;;8.23;;
66761;SDS011;53672;48.176;16.338;2023-12-07T09:34:47;20.00;;;8.77;;
66761;SDS011;53672;48.176;16.338;2023-12-07T09:39:47;17.37;;;8.17;;
66761;SDS011;53672;48.176;16.338;2023-12-07T09:44:49;16.87;;;8.07;;
66761;SDS011;53672;48.176;16.338;2023-12-07T09:49:49;18.03;;;8.77;;
66761;SDS011;53672;48.176;16.338;2023-12-07T09:54:50;22.43;;;9.90;;
66761;SDS011;53672;48.176;16.338;2023-12-07T09:59:54;21.55;;;9.57;;
66761;SDS011;53672;48.176;16.338;2023-12-07T10:05:04;15.55;;;7.65;;
66761;SDS011;53672;48.176;16.338;2023-12-07T10:10:05;14.53;;;7.80;;
66761;SDS011;53672;48.176;16.338;2023-12-07T10:15:11;18.10;;;8.82;;
66761;SDS011;53672;48.176;16.338;2023-12-07T10:20:12;17.20;;;8.25;;
66761;SDS011;53672;48.176;16.338;2023-12-07T10:25:13;16.17;;;7.88;;
66761;SDS011;53672;48.176;16.338;2023-12-07T10:30:15;17.20;;;8.47;;
66761;SDS011;53672;48.176;16.338;2023-12-07T10:35:16;15.18;;;8.23;;
66761;SDS011;53672;48.176;16.338;2023-12-07T10:40:18;16.23;;;9.32;;
66761;SDS011;53672;48.176;16.338;2023-12-07T10:45:19;15.83;;;8.73;;
66761;SDS011;53672;48.176;16.338;2023-12-07T10:50:24;13.87;;;8.17;;
66761;SDS011;53672;48.176;16.338;2023-12-07T10:55:30;13.73;;;8.50;;
66761;SDS011;53672;48.176;16.338;2023-12-07T11:00:43;13.40;;;8.70;;
66761;SDS011;53672;48.176;16.338;2023-12-07T11:05:44;11.57;;;8.50;;
66761;SDS011;53672;48.176;16.338;2023-12-07T11:10:47;10.95;;;8.57;;
66761;SDS011;53672;48.176;16.338;2023-12-07T11:15:54;11.13;;;8.77;;
66761;SDS011;53672;48.176;16.338;2023-12-07T11:20:55;12.27;;;9.18;;
66761;SDS011;53672;48.176;16.338;2023-12-07T11:25:56;12.23;;;9.37;;
66761;SDS011;53672;48.176;16.338;2023-12-07T11:30:58;12.13;;;9.07;;
66761;SDS011;53672;48.176;16.338;2023-12-07T11:36:03;11.88;;;9.23;;
66761;SDS011;53672;48.176;16.338;2023-12-07T11:41:05;13.18;;;9.40;;
66761;SDS011;53672;48.176;16.338;2023-12-07T11:46:07;11.40;;;9.33;;
66761;SDS011;53672;48.176;16.338;2023-12-07T11:51:08;11.95;;;9.48;;
66761;SDS011;53672;48.176;16.338;2023-12-07T11:56:09;12.67;;;9.77;;
66761;SDS011;53672;48.176;16.338;2023-12-07T12:01:11;13.00;;;10.13;;
66761;SDS011;53672;48.176;16.338;2023-12-07T12:06:12;13.35;;;9.52;;
66761;SDS011;53672;48.176;16.338;2023-12-07T12:11:12;14.77;;;9.75;;
66761;SDS011;53672;48.176;16.338;2023-12-07T12:16:14;14.90;;;9.23;;
66761;SDS011;53672;48.176;16.338;2023-12-07T12:21:15;16.63;;;9.10;;
66761;SDS011;53672;48.176;16.338;2023-12-07T12:26:15;16.20;;;9.40;;
66761;SDS011;53672;48.176;16.338;2023-12-07T12:31:17;16.55;;;9.18;;
66761;SDS011;53672;48.176;16.338;2023-12-07T12:36:18;16.30;;;8.93;;
66761;SDS011;53672;48.176;16.338;2023-12-07T12:41:20;17.05;;;9.43;;
66761;SDS011;53672;48.176;16.338;2023-12-07T12:46:22;17.25;;;9.90;;
66761;SDS011;53672;48.176;16.338;2023-12-07T12:51:24;17.67;;;9.40;;
66761;SDS011;53672;48.176;16.338;2023-12-07T12:56:26;19.63;;;8.88;;
66761;SDS011;53672;48.176;16.338;2023-12-07T13:01:28;17.27;;;9.20;;
66761;SDS011;53672;48.176;16.338;2023-12-07T13:06:29;18.70;;;9.25;;
66761;SDS011;53672;48.176;16.338;2023-12-07T13:11:29;18.40;;;8.97;;
66761;SDS011;53672;48.176;16.338;2023-12-07T13:16:31;19.00;;;9.53;;
66761;SDS011;53672;48.176;16.338;2023-12-07T13:21:32;19.52;;;9.50;;
66761;SDS011;53672;48.176;16.338;2023-12-07T13:26:32;19.67;;;9.37;;
66761;SDS011;53672;48.176;16.338;2023-12-07T13:31:34;18.77;;;9.00;;
66761;SDS011;53672;48.176;16.338;2023-12-07T13:36:35;17.38;;;8.45;;
66761;SDS011;53672;48.176;16.338;2023-12-07T13:41:35;18.50;;;9.13;;
66761;SDS011;53672;48.176;16.338;2023-12-07T13:46:37;19.33;;;9.13;;
66761;SDS011;53672;48.176;16.338;2023-12-07T13:51:37;19.83;;;9.38;;
66761;SDS011;53672;48.176;16.338;2023-12-07T13:56:38;21.57;;;9.70;;
66761;SDS011;53672;48.176;16.338;2023-12-07T14:01:40;22.63;;;9.83;;
66761;SDS011;53672;48.176;16.338;2023-12-07T14:06:40;23.25;;;10.10;;
66761;SDS011;53672;48.176;16.338;2023-12-07T14:11:41;26.30;;;9.53;;
66761;SDS011;53672;48.176;16.338;2023-12-07T14:16:43;23.53;;;10.63;;
66761;SDS011;53672;48.176;16.338;2023-12-07T14:21:43;24.57;;;10.20;;
66761;SDS011;53672;48.176;16.338;2023-12-07T14:26:44;26.97;;;11.10;;
66761;SDS011;53672;48.176;16.338;2023-12-07T14:31:45;27.47;;;10.27;;
66761;SDS011;53672;48.176;16.338;2023-12-07T14:36:46;25.63;;;10.20;;
66761;SDS011;53672;48.176;16.338;2023-12-07T14:41:47;28.73;;;11.53;;
66761;SDS011;53672;48.176;16.338;2023-12-07T14:46:49;27.25;;;11.25;;
66761;SDS011;53672;48.176;16.338;2023-12-07T14:51:50;30.63;;;11.27;;
66761;SDS011;53672;48.176;16.338;2023-12-07T14:56:51;24.83;;;11.27;;
66761;SDS011;53672;48.176;16.338;2023-12-07T15:01:52;25.85;;;11.18;;
66761;SDS011;53672;48.176;16.338;2023-12-07T15:06:53;31.70;;;12.30;;
66761;SDS011;53672;48.176;16.338;2023-12-07T15:11:53;29.33;;;11.47;;
66761;SDS011;53672;48.176;16.338;2023-12-07T15:16:55;28.70;;;11.97;;
66761;SDS011;53672;48.176;16.338;2023-12-07T15:21:56;27.00;;;11.35;;
66761;SDS011;53672;48.176;16.338;2023-12-07T15:26:56;29.67;;;11.63;;
66761;SDS011;53672;48.176;16.338;2023-12-07T15:31:58;27.57;;;11.30;;
66761;SDS011;53672;48.176;16.338;2023-12-07T15:36:58;30.43;;;11.40;;
66761;SDS011;53672;48.176;16.338;2023-12-07T15:41:59;32.20;;;12.63;;
66761;SDS011;53672;48.176;16.338;2023-12-07T15:47:00;27.27;;;10.53;;
66761;SDS011;53672;48.176;16.338;2023-12-07T15:52:01;29.48;;;11.48;;
66761;SDS011;53672;48.176;16.338;2023-12-07T15:57:01;30.50;;;11.23;;
66761;SDS011;53672;48.176;16.338;2023-12-07T16:02:03;29.33;;;11.07;;
66761;SDS011;53672;48.176;16.338;2023-12-07T16:07:04;28.27;;;11.07;;
66761;SDS011;53672;48.176;16.338;2023-12-07T16:12:05;27.07;;;11.07;;
66761;SDS011;53672;48.176;16.338;2023-12-07T16:17:08;28.88;;;11.05;;
66761;SDS011;53672;48.176;16.338;2023-12-07T16:22:08;31.40;;;11.97;;
66761;SDS011;53672;48.176;16.338;2023-12-07T16:27:08;29.10;;;11.10;;
66761;SDS011;53672;48.176;16.338;2023-12-07T16:32:11;28.92;;;11.98;;
66761;SDS011;53672;48.176;16.338;2023-12-07T16:37:12;27.63;;;11.60;;
66761;SDS011;53672;48.176;16.338;2023-12-07T16:42:12;31.63;;;11.83;;
66761;SDS011;53672;48.176;16.338;2023-12-07T16:47:14;32.10;;;12.23;;
66761;SDS011;53672;48.176;16.338;2023-12-07T16:52:15;28.40;;;11.27;;
66761;SDS011;53672;48.176;16.338;2023-12-07T16:57:15;29.83;;;11.52;;
66761;SDS011;53672;48.176;16.338;2023-12-07T17:02:17;28.70;;;11.93;;
66761;SDS011;53672;48.176;16.338;2023-12-07T17:07:18;30.63;;;12.07;;
66761;SDS011;53672;48.176;16.338;2023-12-07T17:12:18;26.97;;;11.17;;
66761;SDS011;53672;48.176;16.338;2023-12-07T17:17:20;30.23;;;12.00;;
66761;SDS011;53672;48.176;16.338;2023-12-07T17:22:20;28.38;;;11.45;;
66761;SDS011;53672;48.176;16.338;2023-12-07T17:27:21;32.03;;;12.50;;
66761;SDS011;53672;48.176;16.338;2023-12-07T17:32:22;30.03;;;11.97;;
66761;SDS011;53672;48.176;16.338;2023-12-07T17:37:23;31.27;;;12.55;;
66761;SDS011;53672;48.176;16.338;2023-12-07T17:42:23;29.53;;;12.10;;
66761;SDS011;53672;48.176;16.338;2023-12-07T17:47:25;30.13;;;11.63;;
66761;SDS011;53672;48.176;16.338;2023-12-07T17:52:26;29.97;;;11.97;;
66761;SDS011;53672;48.176;16.338;2023-12-07T17:57:26;31.87;;;12.20;;
66761;SDS011;53672;48.176;16.338;2023-12-07T18:02:28;31.27;;;12.93;;
66761;SDS011;53672;48.176;16.338;2023-12-07T18:07:28;30.45;;;12.48;;
66761;SDS011;53672;48.176;16.338;2023-12-07T18:12:29;31.97;;;12.40;;
66761;SDS011;53672;48.176;16.338;2023-12-07T18:17:30;34.00;;;13.53;;
66761;SDS011;53672;48.176;16.338;2023-12-07T18:22:31;34.05;;;12.82;;
66761;SDS011;53672;48.176;16.338;2023-12-07T18:27:31;37.80;;;14.17;;
66761;SDS011;53672;48.176;16.338;2023-12-07T18:32:33;35.70;;;13.63;;
66761;SDS011;53672;48.176;16.338;2023-12-07T18:37:34;33.57;;;13.20;;
66761;SDS011;53672;48.176;16.338;2023-12-07T18:42:36;36.50;;;13.60;;
66761;SDS011;53672;48.176;16.338;2023-12-07T18:47:38;35.13;;;13.07;;
66761;SDS011;53672;48.176;16.338;2023-12-07T18:52:38;35.13;;;12.30;;
66761;SDS011;53672;48.176;16.338;2023-12-07T18:57:39;31.73;;;11.73;;
66761;SDS011;53672;48.176;16.338;2023-12-07T19:02:40;26.48;;;10.48;;
66761;SDS011;53672;48.176;16.338;2023-12-07T19:07:41;25.55;;;10.20;;
66761;SDS011;53672;48.176;16.338;2023-12-07T19:12:42;26.60;;;10.40;;
66761;SDS011;53672;48.176;16.338;2023-12-07T19:17:43;27.50;;;10.23;;
66761;SDS011;53672;48.176;16.338;2023-12-07T19:22:44;28.80;;;11.23;;
66761;SDS011;53672;48.176;16.338;2023-12-07T19:27:44;26.43;;;10.40;;
66761;SDS011;53672;48.176;16.338;2023-12-07T19:32:47;28.07;;;10.07;;
66761;SDS011;53672;48.176;16.338;2023-12-07T19:37:47;27.27;;;10.85;;
66761;SDS011;53672;48.176;16.338;2023-12-07T19:42:47;37.43;;;12.47;;
66761;SDS011;53672;48.176;16.338;2023-12-07T19:47:49;30.00;;;11.83;;
66761;SDS011;53672;48.176;16.338;2023-12-07T19:52:50;31.10;;;11.47;;
66761;SDS011;53672;48.176;16.338;2023-12-07T19:57:50;34.03;;;13.00;;
66761;SDS011;53672;48.176;16.338;2023-12-07T20:02:52;33.73;;;13.17;;
66761;SDS011;53672;48.176;16.338;2023-12-07T20:07:53;35.20;;;12.75;;
66761;SDS011;53672;48.176;16.338;2023-12-07T20:12:53;35.43;;;12.77;;
66761;SDS011;53672;48.176;16.338;2023-12-07T20:17:55;38.67;;;14.13;;
66761;SDS011;53672;48.176;16.338;2023-12-07T20:22:56;33.50;;;13.27;;
66761;SDS011;53672;48.176;16.338;2023-12-07T20:27:56;36.03;;;13.40;;
66761;SDS011;53672;48.176;16.338;2023-12-07T20:32:58;33.27;;;12.73;;
66761;SDS011;53672;48.176;16.338;2023-12-07T20:37:59;34.60;;;13.65;;
66761;SDS011;53672;48.176;16.338;2023-12-07T20:43:00;36.60;;;13.53;;
66761;SDS011;53672;48.176;16.338;2023-12-07T20:48:02;40.77;;;14.13;;
66761;SDS011;53672;48.176;16.338;2023-12-07T20:53:02;37.47;;;14.00;;
66761;SDS011;53672;48.176;16.338;2023-12-07T20:58:03;36.47;;;13.50;;
66761;SDS011;53672;48.176;16.338;2023-12-07T21:03:04;38.30;;;14.73;;
66761;SDS011;53672;48.176;16.338;2023-12-07T21:08:05;39.00;;;14.80;;
66761;SDS011;53672;48.176;16.338;2023-12-07T21:13:05;38.37;;;14.10;;
66761;SDS011;53672;48.176;16.338;2023-12-07T21:18:07;37.97;;;14.30;;
66761;SDS011;53672;48.176;16.338;2023-12-07T21:23:08;38.17;;;13.33;;
66761;SDS011;53672;48.176;16.338;2023-12-07T21:28:08;38.83;;;14.50;;
66761;SDS011;53672;48.176;16.338;2023-12-07T21:33:10;35.53;;;13.68;;
66761;SDS011;53672;48.176;16.338;2023-12-07T21:38:10;38.72;;;13.40;;
66761;SDS011;53672;48.176;16.338;2023-12-07T21:43:11;38.40;;;14.77;;
66761;SDS011;53672;48.176;16.338;2023-12-07T21:48:14;38.57;;;15.03;;
66761;SDS011;53672;48.176;16.338;2023-12-07T21:53:14;40.50;;;15.02;;
66761;SDS011;53672;48.176;16.338;2023-12-07T21:58:15;37.47;;;14.17;;
66761;SDS011;53672;48.176;16.338;2023-12-07T22:03:16;41.50;;;15.10;;
66761;SDS011;53672;48.176;16.338;2023-12-07T22:08:17;39.67;;;14.57;;
66761;SDS011;53672;48.176;16.338;2023-12-07T22:13:17;43.57;;;15.57;;
66761;SDS011;53672;48.176;16.338;2023-12-07T22:18:19;42.40;;;15.73;;
66761;SDS011;53672;48.176;16.338;2023-12-07T22:23:19;39.80;;;15.23;;
66761;SDS011;53672;48.176;16.338;2023-12-07T22:28:20;41.50;;;15.57;;
66761;SDS011;53672;48.176;16.338;2023-12-07T22:33:22;36.97;;;14.53;;
66761;SDS011;53672;48.176;16.338;2023-12-07T22:38:22;40.22;;;14.77;;
66761;SDS011;53672;48.176;16.338;2023-12-07T22:43:22;40.17;;;14.40;;
66761;SDS011;53672;48.176;16.338;2023-12-07T22:48:24;36.97;;;14.90;;
66761;SDS011;53672;48.176;16.338;2023-12-07T22:53:25;42.33;;;14.93;;
66761;SDS011;53672;48.176;16.338;2023-12-07T22:58:26;38.40;;;14.57;;
66761;SDS011;53672;48.176;16.338;2023-12-07T23:03:28;40.60;;;15.23;;
66761;SDS011;53672;48.176;16.338;2023-12-07T23:08:28;40.00;;;14.57;;
66761;SDS011;53672;48.176;16.338;2023-12-07T23:13:29;40.90;;;14.27;;
66761;SDS011;53672;48.176;16.338;2023-12-07T23:18:31;40.17;;;13.40;;
66761;SDS011;53672;48.176;16.338;2023-12-07T23:23:31;35.50;;;12.47;;
66761;SDS011;53672;48.176;16.338;2023-12-07T23:28:31;38.73;;;13.73;;
66761;SDS011;53672;48.176;16.338;2023-12-07T23:33:33;39.33;;;14.07;;
66761;SDS011;53672;48.176;16.338;2023-12-07T23:38:34;42.40;;;15.32;;
66761;SDS011;53672;48.176;16.338;2023-12-07T23:43:34;39.40;;;14.73;;
66761;SDS011;53672;48.176;16.338;2023-12-07T23:48:36;39.77;;;13.70;;
66761;SDS011;53672;48.176;16.338;2023-12-07T23:53:36;39.05;;;13.93;;
66761;SDS011;53672;48.176;16.338;2023-12-07T23:58:37;38.72;;;13.05;;
